Time;durP1;ratioP1;P1;durP2;ratioP2;P2;SDS_P1;SDS_P2;PMS_P1;PMS_P2;Temp;Humidity;BMP_temperature;BMP_pressure;BME280_temperature;BME280_humidity;BME280_pressure;Samples;Min_cycle;Max_cycle;Signal;HPM_P1;HPM_P2
2023/09/16 00:00:34;;;;;;;1.13;1.02;;;;;;;;;;6135001;23;20334;-73
2023/09/16 00:03:00;;;;;;;1.85;1.10;;;;;;;;;;6124906;23;20024;-73
2023/09/16 00:05:26;;;;;;;1.10;0.95;;;;;;;;;;6108959;23;20081;-73
2023/09/16 00:07:52;;;;;;;1.35;1.13;;;;;;;;;;6134893;23;20433;-73
2023/09/16 00:10:18;;;;;;;1.30;1.00;;;;;;;;;;6134943;23;20038;-78
2023/09/16 00:12:44;;;;;;;1.98;0.70;;;;;;;;;;6134952;23;20008;-78
2023/09/16 00:15:10;;;;;;;1.83;1.30;;;;;;;;;;6134805;23;20016;-78
2023/09/16 00:17:36;;;;;;;1.48;1.10;;;;;;;;;;6134923;23;20005;-78
2023/09/16 00:20:15;;;;;;;0.82;0.82;;;;;;;;;;6134908;23;20053;-78
2023/09/16 00:22:42;;;;;;;1.50;0.90;;;25.00;55.60;;;;;;6124975;23;20006;-78
2023/09/16 00:25:08;;;;;;;2.70;0.98;;;;;;;;;;6135105;23;20029;-78
2023/09/16 00:27:35;;;;;;;1.73;0.85;;;;;;;;;;6135517;23;19998;-78
2023/09/16 00:30:03;;;;;;;1.05;0.95;;;;;;;;;;6134858;23;20006;-78
2023/09/16 00:32:29;;;;;;;1.33;1.00;;;;;;;;;;6135021;23;19994;-78
2023/09/16 00:34:55;;;;;;;1.35;0.90;;;;;;;;;;6134873;23;20101;-78
2023/09/16 00:37:21;;;;;;;1.52;1.17;;;;;;;;;;6134837;23;20037;-78
2023/09/16 00:39:47;;;;;;;1.02;0.80;;;;;;;;;;6125129;23;20009;-73
2023/09/16 00:42:14;;;;;;;1.45;1.10;;;;;;;;;;6125228;23;20009;-73
2023/09/16 00:44:41;;;;;;;0.85;0.85;;;;;;;;;;6124756;23;19998;-73
2023/09/16 00:47:07;;;;;;;2.08;0.90;;;;;;;;;;6125131;23;20029;-73
2023/09/16 00:49:34;;;;;;;1.00;0.90;;;;;;;;;;6125133;23;20002;-73
2023/09/16 00:52:00;;;;;;;1.20;1.00;;;;;;;;;;6125157;23;20006;-73
2023/09/16 00:54:27;;;;;;;1.20;0.93;;;;;;;;;;6124970;23;20030;-73
2023/09/16 00:56:56;;;;;;;1.30;1.10;;;24.90;59.00;;;;;;6125007;23;20084;-78
2023/09/16 00:59:23;;;;;;;1.65;1.00;;;;;;;;;;6125450;23;19994;-78
2023/09/16 01:01:51;;;;;;;0.95;0.80;;;24.90;59.10;;;;;;6124855;23;20010;-79
2023/09/16 01:04:18;;;;;;;0.80;0.75;;;;;;;;;;6125312;23;20330;-78
2023/09/16 01:06:46;;;;;;;1.42;1.10;;;;;;;;;;6125047;23;20006;-78
2023/09/16 01:09:17;;;;;;;0.93;0.88;;;;;;;;;;6124703;23;20375;-78
2023/09/16 01:11:44;;;;;;;1.25;0.93;;;;;;;;;;6124680;23;20009;-78
2023/09/16 01:14:14;;;;;;;1.45;1.00;;;;;;;;;;6125072;23;20061;-79
2023/09/16 01:16:57;;;;;;;1.08;0.98;;;24.50;53.60;;;;;;6124537;23;20479;-73
2023/09/16 01:19:23;;;;;;;0.80;0.80;;;;;;;;;;6124939;23;20006;-73
2023/09/16 01:21:50;;;;;;;0.95;0.82;;;;;;;;;;6124470;23;20053;-73
2023/09/16 01:24:18;;;;;;;0.98;0.88;;;24.80;58.10;;;;;;6124502;23;20610;-73
2023/09/16 01:26:44;;;;;;;0.73;0.73;;;;;;;;;;6124790;23;19998;-73
2023/09/16 01:29:11;;;;;;;1.05;0.85;;;;;;;;;;6124414;23;20441;-73
2023/09/16 01:31:38;;;;;;;1.17;0.98;;;;;;;;;;6124308;23;20429;-73
2023/09/16 01:34:13;;;;;;;1.35;0.98;;;24.70;59.50;;;;;;6126294;23;20002;-72
2023/09/16 01:36:41;;;;;;;1.02;0.93;;;24.70;59.40;;;;;;6126762;23;20014;-73
2023/09/16 01:39:09;;;;;;;1.15;1.00;;;24.70;59.00;;;;;;6126813;23;20318;-73
2023/09/16 01:41:36;;;;;;;1.45;1.33;;;25.20;59.90;;;;;;6126916;23;20378;-73
2023/09/16 01:44:02;;;;;;;0.68;0.68;;;24.70;58.50;;;;;;6136231;23;20100;-79
2023/09/16 01:46:28;;;;;;;1.20;1.10;;;;;;;;;;6136289;23;20009;-78
2023/09/16 01:48:54;;;;;;;0.85;0.85;;;;;;;;;;6136155;23;20053;-78
2023/09/16 01:51:20;;;;;;;0.90;0.80;;;;;;;;;;6136374;23;20005;-78
2023/09/16 01:53:46;;;;;;;1.38;1.05;;;;;;;;;;6126817;23;20006;-78
2023/09/16 01:56:12;;;;;;;1.88;1.00;;;;;;;;;;6136062;23;20068;-78
2023/09/16 01:58:38;;;;;;;0.95;0.80;;;;;;;;;;6136245;23;20445;-78
2023/09/16 02:01:09;;;;;;;0.90;0.90;;;24.60;59.40;;;;;;6136617;23;20337;-73
2023/09/16 02:03:35;;;;;;;1.10;0.82;;;;;;;;;;6126221;23;20010;-73
2023/09/16 02:06:01;;;;;;;1.05;0.85;;;;;;;;;;6136049;23;20378;-73
2023/09/16 02:08:27;;;;;;;1.27;1.05;;;;;;;;;;6126514;23;20002;-73
2023/09/16 02:10:53;;;;;;;1.33;1.20;;;;;;;;;;6136025;23;20025;-73
2023/09/16 02:13:20;;;;;;;2.40;1.00;;;;;;;;;;6136069;23;19994;-73
2023/09/16 02:15:46;;;;;;;1.10;1.00;;;;;;;;;;6135993;23;20017;-73
2023/09/16 02:18:12;;;;;;;1.45;1.17;;;;;;;;;;6135827;23;20326;-72
2023/09/16 02:20:38;;;;;;;1.13;0.68;;;;;;;;;;6135944;23;19998;-72
2023/09/16 02:23:04;;;;;;;1.17;0.90;;;;;;;;;;6126313;23;20004;-73
2023/09/16 02:25:32;;;;;;;1.10;1.00;;;24.50;59.50;;;;;;6135906;23;20029;-73
2023/09/16 02:27:58;;;;;;;0.95;0.95;;;;;;;;;;6135832;23;19993;-73
2023/09/16 02:30:24;;;;;;;1.15;0.77;;;;;;;;;;6136304;23;20006;-72
2023/09/16 02:32:51;;;;;;;1.15;1.05;;;;;;;;;;6135686;23;20002;-71
2023/09/16 02:35:17;;;;;;;1.27;0.80;;;;;;;;;;6126103;23;20017;-71
2023/09/16 02:37:43;;;;;;;0.80;0.80;;;;;;;;;;6125862;23;19998;-71
2023/09/16 02:40:09;;;;;;;1.25;1.15;;;;;;;;;;6125758;23;20002;-72
2023/09/16 02:42:36;;;;;;;1.08;0.98;;;;;;;;;;6125725;23;20457;-72
2023/09/16 02:45:03;;;;;;;0.80;0.80;;;;;;;;;;6125237;23;20002;-72
2023/09/16 02:47:30;;;;;;;1.10;1.00;;;;;;;;;;6126160;23;20002;-72
2023/09/16 02:49:56;;;;;;;1.00;0.90;;;;;;;;;;6125794;23;20033;-71
2023/09/16 02:52:22;;;;;;;1.48;1.00;;;;;;;;;;6125757;23;20057;-72
2023/09/16 02:54:49;;;;;;;1.17;0.98;;;;;;;;;;6125967;23;20053;-72
2023/09/16 02:57:15;;;;;;;0.90;0.80;;;;;;;;;;6125610;23;20438;-72
2023/09/16 02:59:42;;;;;;;0.80;0.80;;;;;;;;;;6126483;23;20057;-77
2023/09/16 03:02:08;;;;;;;1.20;1.10;;;;;;;;;;6125408;23;20024;-78
2023/09/16 03:04:35;;;;;;;1.38;0.90;;;;;;;;;;6125774;23;20064;-77
2023/09/16 03:07:01;;;;;;;1.10;1.00;;;;;;;;;;6126190;23;20315;-77
2023/09/16 03:09:27;;;;;;;1.13;1.00;;;;;;;;;;6125783;23;20475;-77
2023/09/16 03:11:54;;;;;;;1.63;0.90;;;;;;;;;;6125591;23;20006;-77
2023/09/16 03:14:20;;;;;;;0.73;0.73;;;;;;;;;;6125920;23;20009;-77
2023/09/16 03:16:47;;;;;;;0.88;0.80;;;;;;;;;;6125905;23;20014;-77
2023/09/16 03:19:16;;;;;;;0.93;0.90;;;;;;;;;;6125798;23;20021;-77
2023/09/16 03:21:42;;;;;;;0.82;0.82;;;;;;;;;;6125977;23;20002;-77
2023/09/16 03:24:09;;;;;;;0.80;0.80;;;;;;;;;;6125707;23;20006;-77
2023/09/16 03:26:35;;;;;;;1.17;1.08;;;;;;;;;;6126410;23;20006;-77
2023/09/16 03:29:02;;;;;;;0.93;0.80;;;;;;;;;;6125873;23;20022;-77
2023/09/16 03:31:29;;;;;;;1.67;0.80;;;;;;;;;;6125487;23;20002;-77
2023/09/16 03:33:55;;;;;;;1.52;1.02;;;;;;;;;;6126004;23;20013;-78
2023/09/16 03:36:22;;;;;;;1.25;1.10;;;;;;;;;;6125861;23;20370;-78
2023/09/16 03:38:50;;;;;;;1.30;1.00;;;24.20;60.10;;;;;;6126015;23;20311;-78
2023/09/16 03:41:16;;;;;;;1.95;1.10;;;;;;;;;;6125535;23;20485;-78
2023/09/16 03:43:43;;;;;;;1.13;0.90;;;;;;;;;;6125514;23;20012;-77
2023/09/16 03:46:09;;;;;;;1.02;0.90;;;;;;;;;;6125871;23;20020;-77
2023/09/16 03:48:36;;;;;;;1.10;0.98;;;;;;;;;;6125817;23;20009;-77
2023/09/16 03:51:06;;;;;;;1.00;0.90;;;24.10;57.80;;;;;;6125471;23;20533;-77
2023/09/16 03:53:34;;;;;;;1.25;0.70;;;24.20;58.60;;;;;;6125600;23;20002;-77
2023/09/16 03:56:05;;;;;;;1.13;0.95;;;24.10;60.30;;;;;;6125543;23;20468;-77
2023/09/16 03:58:35;;;;;;;1.08;1.00;;;24.10;60.00;;;;;;6100370;23;20001;-78
2023/09/16 04:01:02;;;;;;;1.13;0.95;;;;;;;;;;6125502;23;19994;-78
2023/09/16 04:03:29;;;;;;;1.15;0.90;;;;;;;;;;6124895;23;20025;-78
2023/09/16 04:05:58;;;;;;;0.80;0.80;;;;;;;;;;6125528;23;20005;-77
2023/09/16 04:08:27;;;;;;;1.20;0.93;;;24.10;56.70;;;;;;6135035;23;20002;-77
2023/09/16 04:10:53;;;;;;;1.20;0.90;;;;;;;;;;6134963;23;20002;-77
2023/09/16 04:13:21;;;;;;;1.02;0.93;;;24.00;59.90;;;;;;6125517;23;20009;-77
2023/09/16 04:15:47;;;;;;;0.85;0.80;;;;;;;;;;6125159;23;20180;-78
2023/09/16 04:18:13;;;;;;;1.20;1.08;;;;;;;;;;6134921;23;20041;-77
2023/09/16 04:20:39;;;;;;;1.00;0.80;;;;;;;;;;6134845;23;20008;-77
2023/09/16 04:23:05;;;;;;;1.95;0.65;;;;;;;;;;6135545;23;19998;-78
2023/09/16 04:25:31;;;;;;;1.27;1.08;;;;;;;;;;6134761;23;20001;-77
2023/09/16 04:27:58;;;;;;;1.20;0.95;;;;;;;;;;6125366;23;20002;-78
2023/09/16 04:30:26;;;;;;;0.95;0.90;;;;;;;;;;6124817;23;20006;-78
2023/09/16 04:32:53;;;;;;;1.42;0.88;;;23.00;59.50;;;;;;6125278;23;20363;-78
2023/09/16 04:35:20;;;;;;;1.15;0.82;;;;;;;;;;6125290;23;20014;-73
2023/09/16 04:37:46;;;;;;;1.60;1.20;;;;;;;;;;6124845;23;20037;-73
2023/09/16 04:40:13;;;;;;;1.40;1.10;;;;;;;;;;6124810;23;20009;-73
2023/09/16 04:42:39;;;;;;;0.80;0.73;;;;;;;;;;6125029;23;20006;-73
2023/09/16 04:45:06;;;;;;;1.02;0.93;;;;;;;;;;6124698;23;19998;-72
2023/09/16 04:47:36;;;;;;;1.48;1.00;;;;;;;;;;6125020;23;20400;-72
2023/09/16 04:50:02;;;;;;;1.38;1.17;;;;;;;;;;6125459;23;20002;-72
2023/09/16 04:52:29;;;;;;;1.70;0.90;;;;;;;;;;6125399;23;20057;-77
2023/09/16 04:54:55;;;;;;;0.85;0.85;;;;;;;;;;6124864;23;20024;-77
2023/09/16 04:57:22;;;;;;;1.13;0.88;;;;;;;;;;6125002;23;20002;-78
2023/09/16 04:59:48;;;;;;;1.00;0.90;;;;;;;;;;6124781;23;20002;-78
2023/09/16 05:02:15;;;;;;;1.50;1.40;;;;;;;;;;6124815;23;20023;-77
2023/09/16 05:04:41;;;;;;;1.10;0.80;;;;;;;;;;6124911;23;20433;-78
2023/09/16 05:07:08;;;;;;;0.82;0.82;;;;;;;;;;6124807;23;20446;-78
2023/09/16 05:09:35;;;;;;;1.55;1.13;;;;;;;;;;6129352;23;20009;-77
2023/09/16 05:12:02;;;;;;;0.95;0.95;;;;;;;;;;6127036;23;20013;-79
2023/09/16 05:14:28;;;;;;;0.82;0.82;;;;;;;;;;6124923;23;20085;-77
2023/09/16 05:16:54;;;;;;;1.10;1.00;;;;;;;;;;6099028;23;20013;-77
2023/09/16 05:19:21;;;;;;;0.90;0.90;;;;;;;;;;6134226;23;20330;-79
2023/09/16 05:21:47;;;;;;;0.93;0.82;;;;;;;;;;6124891;23;20457;-72
2023/09/16 05:24:13;;;;;;;1.05;0.95;;;;;;;;;;6134144;23;19994;-73
2023/09/16 05:26:39;;;;;;;1.05;0.80;;;;;;;;;;6134194;23;20036;-72
2023/09/16 05:29:05;;;;;;;1.00;0.90;;;;;;;;;;6134183;23;20002;-72
2023/09/16 05:31:31;;;;;;;2.42;0.90;;;;;;;;;;6134334;23;20426;-73
2023/09/16 05:33:57;;;;;;;0.68;0.65;;;;;;;;;;6134292;23;20002;-73
2023/09/16 05:36:24;;;;;;;1.10;1.00;;;;;;;;;;6134262;23;20319;-73
2023/09/16 05:38:50;;;;;;;0.80;0.80;;;;;;;;;;6134223;23;20002;-72
2023/09/16 05:41:16;;;;;;;0.90;0.75;;;;;;;;;;6134148;23;20437;-72
2023/09/16 05:43:42;;;;;;;1.00;0.80;;;;;;;;;;6124415;23;20002;-72
2023/09/16 05:46:09;;;;;;;1.13;1.02;;;;;;;;;;6124460;23;20105;-73
2023/09/16 05:48:35;;;;;;;1.10;1.00;;;;;;;;;;6124473;23;20010;-72
2023/09/16 05:51:02;;;;;;;3.60;0.90;;;;;;;;;;6124266;23;20077;-72
2023/09/16 05:53:30;;;;;;;1.00;0.95;;;23.60;60.20;;;;;;6124334;23;20448;-73
2023/09/16 05:55:57;;;;;;;1.33;1.05;;;;;;;;;;6124169;23;20006;-72
2023/09/16 05:58:23;;;;;;;1.40;1.05;;;;;;;;;;6124583;23;20326;-72
2023/09/16 06:00:54;;;;;;;1.20;0.73;;;23.70;54.80;;;;;;6124242;23;20019;-72
2023/09/16 06:03:21;;;;;;;1.00;0.90;;;;;;;;;;6124116;23;20033;-72
2023/09/16 06:05:47;;;;;;;2.17;0.98;;;;;;;;;;6124265;23;19998;-72
2023/09/16 06:08:14;;;;;;;1.00;0.90;;;23.60;58.10;;;;;;6125022;23;20029;-77
2023/09/16 06:10:41;;;;;;;1.90;0.93;;;;;;;;;;6124541;23;19994;-78
2023/09/16 06:13:07;;;;;;;1.10;1.00;;;;;;;;;;6124644;23;20002;-79
2023/09/16 06:15:34;;;;;;;1.33;1.02;;;;;;;;;;6124601;23;20010;-79
2023/09/16 06:18:00;;;;;;;1.25;0.77;;;;;;;;;;6124450;23;20009;-79
2023/09/16 06:20:26;;;;;;;3.40;1.38;;;;;;;;;;6125942;23;20002;-79
2023/09/16 06:22:53;;;;;;;1.15;1.05;;;;;;;;;;6126596;23;20346;-79
2023/09/16 06:25:20;;;;;;;1.25;1.15;;;;;;;;;;6126646;23;20010;-79
2023/09/16 06:27:46;;;;;;;1.17;0.93;;;;;;;;;;6126541;23;20069;-79
2023/09/16 06:30:13;;;;;;;0.80;0.80;;;;;;;;;;6126580;23;20002;-79
2023/09/16 06:32:39;;;;;;;1.83;1.10;;;;;;;;;;6126247;23;20030;-81
2023/09/16 06:35:06;;;;;;;1.45;1.33;;;;;;;;;;6126535;23;20087;-81
2023/09/16 06:37:32;;;;;;;2.90;1.02;;;;;;;;;;6127104;23;20006;-77
2023/09/16 06:39:58;;;;;;;1.35;1.15;;;;;;;;;;6126363;23;20025;-78
2023/09/16 06:42:25;;;;;;;1.17;1.08;;;;;;;;;;6126476;23;20036;-76
2023/09/16 06:44:54;;;;;;;1.10;1.05;;;;;;;;;;6126412;23;20006;-79
2023/09/16 06:47:26;;;;;;;1.75;1.35;;;23.50;60.50;;;;;;6126267;23;20045;-75
2023/09/16 06:49:52;;;;;;;0.93;0.82;;;;;;;;;;6126199;23;20073;-74
2023/09/16 06:52:18;;;;;;;1.45;1.25;;;;;;;;;;6135593;23;20022;-75
2023/09/16 06:54:45;;;;;;;1.75;1.50;;;;;;;;;;6135612;23;20311;-73
2023/09/16 06:57:11;;;;;;;1.30;1.20;;;;;;;;;;6125999;23;20017;-75
2023/09/16 06:59:37;;;;;;;1.20;1.05;;;;;;;;;;6135489;23;20002;-73
2023/09/16 07:02:03;;;;;;;1.58;1.45;;;;;;;;;;6135219;23;20014;-74
2023/09/16 07:04:29;;;;;;;3.38;1.40;;;;;;;;;;6135688;23;19994;-73
2023/09/16 07:06:55;;;;;;;2.28;1.38;;;;;;;;;;6126354;23;20002;-75
2023/09/16 07:09:22;;;;;;;2.67;1.67;;;;;;;;;;6135233;23;20053;-72
2023/09/16 07:11:48;;;;;;;2.30;1.70;;;;;;;;;;6135302;23;20002;-72
2023/09/16 07:14:14;;;;;;;2.40;1.50;;;;;;;;;;6135160;23;20325;-72
2023/09/16 07:16:40;;;;;;;2.63;1.90;;;;;;;;;;6134968;23;20021;-71
2023/09/16 07:19:07;;;;;;;2.25;1.63;;;23.40;58.70;;;;;;6134860;23;20069;-72
2023/09/16 07:21:34;;;;;;;5.00;2.13;;;;;;;;;;6135103;23;20014;-72
2023/09/16 07:24:01;;;;;;;2.33;1.70;;;;;;;;;;6135865;23;20009;-77
2023/09/16 07:26:30;;;;;;;1.70;1.60;;;23.40;61.10;;;;;;6125485;23;20005;-76
2023/09/16 07:28:57;;;;;;;4.43;1.80;;;;;;;;;;6125785;23;20374;-77
2023/09/16 07:31:24;;;;;;;2.75;1.70;;;;;;;;;;6125215;23;20456;-77
2023/09/16 07:33:50;;;;;;;2.95;1.98;;;;;;;;;;6125826;23;20017;-76
2023/09/16 07:36:17;;;;;;;4.47;2.05;;;;;;;;;;6125354;23;20034;-76
2023/09/16 07:38:43;;;;;;;2.88;2.00;;;;;;;;;;6125345;23;20002;-77
2023/09/16 07:41:09;;;;;;;2.35;1.83;;;;;;;;;;6125567;23;20064;-75
2023/09/16 07:43:36;;;;;;;2.22;1.70;;;;;;;;;;6125705;23;20024;-76
2023/09/16 07:46:02;;;;;;;3.47;1.80;;;;;;;;;;6135134;23;20441;-75
2023/09/16 07:48:28;;;;;;;1.67;1.58;;;;;;;;;;6134949;23;20025;-75
2023/09/16 07:50:54;;;;;;;2.00;1.77;;;;;;;;;;6125603;23;20002;-73
2023/09/16 07:53:21;;;;;;;3.20;1.83;;;;;;;;;;6125159;23;20008;-73
2023/09/16 07:55:47;;;;;;;3.28;2.08;;;;;;;;;;6134593;23;20006;-73
2023/09/16 07:58:13;;;;;;;3.58;1.88;;;;;;;;;;6134777;23;19994;-72
2023/09/16 08:00:39;;;;;;;3.75;2.25;;;;;;;;;;6134713;23;20072;-72
2023/09/16 08:03:05;;;;;;;4.10;1.83;;;;;;;;;;6134585;23;20018;-76
2023/09/16 08:05:31;;;;;;;2.40;1.80;;;;;;;;;;6135155;23;19998;-76
2023/09/16 08:07:57;;;;;;;1.98;1.83;;;;;;;;;;6125599;23;19998;-76
2023/09/16 08:10:24;;;;;;;2.30;1.92;;;;;;;;;;6125279;23;20114;-76
2023/09/16 08:12:50;;;;;;;4.07;2.00;;;;;;;;;;6125101;23;20500;-74
2023/09/16 08:15:17;;;;;;;2.83;2.10;;;;;;;;;;6124895;23;20006;-75
2023/09/16 08:17:43;;;;;;;4.07;1.95;;;;;;;;;;6124683;23;20002;-75
2023/09/16 08:20:10;;;;;;;3.15;2.13;;;;;;;;;;6125196;23;20030;-73
2023/09/16 08:22:36;;;;;;;3.88;2.28;;;;;;;;;;6124878;23;20014;-73
2023/09/16 08:25:03;;;;;;;3.58;2.30;;;22.30;59.30;;;;;;6125002;23;20002;-73
2023/09/16 08:27:30;;;;;;;2.67;2.38;;;;;;;;;;6124569;23;20002;-73
2023/09/16 08:29:56;;;;;;;4.05;2.38;;;;;;;;;;6125693;23;19998;-72
2023/09/16 08:32:26;;;;;;;4.22;2.70;;;;;;;;;;6126108;23;20457;-76
2023/09/16 08:34:52;;;;;;;3.75;2.25;;;;;;;;;;6124661;23;20022;-76
2023/09/16 08:37:18;;;;;;;2.90;2.35;;;;;;;;;;6134390;23;20025;-76
2023/09/16 08:39:44;;;;;;;4.70;2.65;;;;;;;;;;6124491;23;20371;-75
2023/09/16 08:42:30;;;;;;;5.07;2.90;;;23.80;58.30;;;;;;6124399;23;20013;-76
2023/09/16 08:45:03;;;;;;;6.75;2.38;;;23.90;64.50;;;;;;6124289;23;19994;-77
2023/09/16 08:47:46;;;;;;;4.00;2.40;;;23.90;64.30;;;;;;6124883;23;20002;-79
2023/09/16 08:50:12;;;;;;;3.65;2.47;;;;;;;;;;6124722;23;20017;-71
2023/09/16 08:52:48;;;;;;;4.30;2.63;;;24.00;64.40;;;;;;6134081;23;20338;-71
2023/09/16 08:55:15;;;;;;;2.50;2.30;;;24.50;62.30;;;;;;6134076;23;20433;-71
2023/09/16 08:57:46;;;;;;;4.13;2.80;;;24.00;64.30;;;;;;6134130;23;19998;-73
2023/09/16 09:00:13;;;;;;;2.80;2.45;;;;;;;;;;6124547;23;20438;-72
2023/09/16 09:02:40;;;;;;;3.55;2.50;;;24.10;61.70;;;;;;6124139;23;20461;-73
2023/09/16 09:05:07;;;;;;;4.88;2.25;;;23.70;64.40;;;;;;6124938;23;20008;-74
2023/09/16 09:07:39;;;;;;;3.65;2.60;;;24.20;64.50;;;;;;6125000;23;20021;-74
2023/09/16 09:10:06;;;;;;;3.55;2.55;;;;;;;;;;6124486;23;20448;-74
2023/09/16 09:12:37;;;;;;;3.65;2.50;;;24.30;59.00;;;;;;6124746;23;20068;-74
2023/09/16 09:15:06;;;;;;;2.92;2.30;;;;;;;;;;6124374;23;20033;-75
2023/09/16 09:17:40;;;;;;;3.03;2.30;;;24.30;65.40;;;;;;6124836;23;20002;-75
2023/09/16 09:20:14;;;;;;;4.85;2.45;;;24.40;59.00;;;;;;6124246;23;20049;-74
2023/09/16 09:22:41;;;;;;;3.55;2.15;;;;;;;;;;6124403;23;19998;-75
2023/09/16 09:25:08;;;;;;;5.13;2.50;;;;;;;;;;6124768;23;20002;-75
2023/09/16 09:27:34;;;;;;;5.25;2.20;;;;;;;;;;6124715;23;20283;-75
2023/09/16 09:30:00;;;;;;;3.33;2.28;;;;;;;;;;6134518;23;20054;-76
2023/09/16 09:32:31;;;;;;;2.80;2.20;;;24.60;61.40;;;;;;6134349;23;20063;-77
2023/09/16 09:35:06;;;;;;;4.43;2.38;;;24.70;67.30;;;;;;6124685;23;20004;-76
2023/09/16 09:37:33;;;;;;;2.55;2.00;;;;;;;;;;6124891;23;20010;-76
2023/09/16 09:40:06;;;;;;;4.43;2.30;;;24.80;61.30;;;;;;6124784;23;19998;-76
2023/09/16 09:42:33;;;;;;;2.78;2.08;;;;;;;;;;6124788;23;20414;-78
2023/09/16 09:45:02;;;;;;;2.13;1.88;;;24.90;61.30;;;;;;6125237;23;20002;-74
2023/09/16 09:47:28;;;;;;;4.07;2.33;;;;;;;;;;6133933;23;19994;-73
2023/09/16 09:49:55;;;;;;;4.60;2.25;;;;;;;;;;6133810;23;20057;-74
2023/09/16 09:52:21;;;;;;;2.85;2.08;;;;;;;;;;6133893;23;20005;-75
2023/09/16 09:54:47;;;;;;;3.17;2.38;;;;;;;;;;6134677;23;20010;-76
2023/09/16 09:57:14;;;;;;;2.67;2.15;;;;;;;;;;6135944;23;20009;-80
2023/09/16 09:59:40;;;;;;;3.63;2.20;;;25.10;67.30;;;;;;6126681;23;20460;-80
2023/09/16 10:02:08;;;;;;;2.72;2.10;;;25.20;64.60;;;;;;6135816;23;20010;-80
2023/09/16 10:04:34;;;;;;;3.70;2.30;;;;;;;;;;6126660;23;20373;-81
2023/09/16 10:07:00;;;;;;;2.33;2.10;;;;;;;;;;6100007;23;20006;-79
2023/09/16 10:09:27;;;;;;;2.50;1.73;;;;;;;;;;6126139;23;20002;-79
2023/09/16 10:11:53;;;;;;;2.58;2.10;;;;;;;;;;6126002;23;20002;-78
2023/09/16 10:14:19;;;;;;;4.90;2.33;;;;;;;;;;6136391;23;20025;-74
2023/09/16 10:16:47;;;;;;;2.67;2.47;;;25.50;67.30;;;;;;6126135;23;20376;-74
2023/09/16 10:19:13;;;;;;;2.42;2.03;;;;;;;;;;6125954;23;19995;-73
2023/09/16 10:21:40;;;;;;;4.03;2.20;;;25.70;67.30;;;;;;6135701;23;20073;-74
2023/09/16 10:24:08;;;;;;;3.05;2.30;;;25.80;67.00;;;;;;6135766;23;19998;-74
2023/09/16 10:26:34;;;;;;;3.28;2.17;;;;;;;;;;6135779;23;20330;-73
2023/09/16 10:29:00;;;;;;;2.20;1.98;;;;;;;;;;6135498;23;20407;-75
2023/09/16 10:31:27;;;;;;;2.75;2.20;;;26.00;66.50;;;;;;6135753;23;20073;-74
2023/09/16 10:33:54;;;;;;;2.63;2.20;;;26.10;63.40;;;;;;6135778;23;20049;-75
2023/09/16 10:36:21;;;;;;;3.00;2.28;;;26.20;66.40;;;;;;6135706;23;20096;-75
2023/09/16 10:38:47;;;;;;;2.55;1.90;;;26.30;65.60;;;;;;6135728;23;20017;-74
2023/09/16 10:41:16;;;;;;;2.42;2.10;;;26.30;66.40;;;;;;6135592;23;20073;-73
2023/09/16 10:43:44;;;;;;;2.70;2.35;;;26.30;66.10;;;;;;6136120;23;19998;-73
2023/09/16 10:46:10;;;;;;;2.83;2.15;;;;;;;;;;6135369;23;20013;-73
2023/09/16 10:48:37;;;;;;;2.80;2.10;;;;;;;;;;6135633;23;19994;-72
2023/09/16 10:51:07;;;;;;;2.28;2.08;;;26.70;66.10;;;;;;6135382;23;20302;-72
2023/09/16 10:53:36;;;;;;;1.77;1.50;;;26.60;63.30;;;;;;6135475;23;19997;-72
2023/09/16 10:56:10;;;;;;;2.13;1.98;;;26.60;59.90;;;;;;6125782;23;20330;-73
2023/09/16 10:58:36;;;;;;;2.05;1.85;;;;;;;;;;6125766;23;20009;-72
2023/09/16 11:01:06;;;;;;;2.47;1.92;;;26.70;64.70;;;;;;6125526;23;19998;-73
2023/09/16 11:03:36;;;;;;;2.63;2.00;;;26.80;65.50;;;;;;6125226;23;20355;-74
2023/09/16 11:06:02;;;;;;;2.00;1.80;;;;;;;;;;6125243;23;19998;-73
2023/09/16 11:08:29;;;;;;;3.13;1.95;;;;;;;;;;6125661;23;20283;-74
2023/09/16 11:10:58;;;;;;;1.70;1.58;;;;;;;;;;6125875;23;20456;-73
2023/09/16 11:13:26;;;;;;;2.42;2.00;;;27.00;64.80;;;;;;6125388;23;20049;-74
2023/09/16 11:15:53;;;;;;;2.50;1.63;;;;;;;;;;6100241;23;20013;-78
2023/09/16 11:18:19;;;;;;;2.67;1.58;;;;;;;;;;6125380;23;20002;-79
2023/09/16 11:20:46;;;;;;;2.63;2.00;;;27.40;63.80;;;;;;6125919;23;20013;-75
2023/09/16 11:23:12;;;;;;;2.03;1.80;;;;;;;;;;6125499;23;19998;-76
2023/09/16 11:25:43;;;;;;;2.45;2.05;;;27.60;64.40;;;;;;6125938;23;20357;-77
2023/09/16 11:28:12;;;;;;;2.33;2.13;;;27.70;64.30;;;;;;6125281;23;20002;-79
2023/09/16 11:30:39;;;;;;;1.98;1.80;;;27.70;63.90;;;;;;6125647;23;20283;-79
2023/09/16 11:33:08;;;;;;;2.72;2.03;;;;;;;;;;6125577;23;20006;-79
2023/09/16 11:35:38;;;;;;;2.55;1.60;;;27.90;64.10;;;;;;6125308;23;20014;-79
2023/09/16 11:38:05;;;;;;;1.65;1.50;;;;;;;;;;6125764;23;20004;-80
2023/09/16 11:40:33;;;;;;;2.15;1.70;;;28.10;64.10;;;;;;6135610;23;20005;-80
2023/09/16 11:42:59;;;;;;;2.72;2.00;;;28.20;63.30;;;;;;6125546;23;19998;-79
2023/09/16 11:45:28;;;;;;;1.63;1.52;;;28.30;63.60;;;;;;6125562;23;19998;-78
2023/09/16 11:47:54;;;;;;;1.73;1.48;;;;;;;;;;6135212;23;19994;-78
2023/09/16 11:50:25;;;;;;;1.52;1.42;;;28.40;58.00;;;;;;6125535;23;20010;-78
2023/09/16 11:52:51;;;;;;;2.03;1.83;;;;;;;;;;6125896;23;20095;-79
2023/09/16 11:55:18;;;;;;;2.45;1.85;;;;;;;;;;6125668;23;20006;-79
2023/09/16 11:57:46;;;;;;;4.70;1.55;;;28.50;63.40;;;;;;6125483;23;20062;-79
2023/09/16 12:00:13;;;;;;;1.50;1.40;;;;;;;;;;6125934;23;20006;-78
2023/09/16 12:02:41;;;;;;;1.48;1.38;;;28.60;63.40;;;;;;6125310;23;20407;-79
2023/09/16 12:05:07;;;;;;;2.35;1.60;;;;;;;;;;6125251;23;20002;-78
2023/09/16 12:07:36;;;;;;;1.52;1.40;;;28.70;63.50;;;;;;6125858;23;20002;-73
2023/09/16 12:10:03;;;;;;;2.40;1.70;;;28.70;62.20;;;;;;6124806;23;20081;-73
2023/09/16 12:12:30;;;;;;;2.08;1.33;;;;;;;;;;6125141;23;20001;-73
2023/09/16 12:14:56;;;;;;;1.60;1.50;;;;;;;;;;6124697;23;20026;-73
2023/09/16 12:17:26;;;;;;;2.05;1.60;;;28.70;57.90;;;;;;6124549;23;20014;-73
2023/09/16 12:19:54;;;;;;;1.92;1.58;;;28.70;63.80;;;;;;6125073;23;20013;-72
2023/09/16 12:22:21;;;;;;;1.65;1.40;;;28.60;62.60;;;;;;6125140;23;20081;-73
2023/09/16 12:24:47;;;;;;;2.45;1.30;;;;;;;;;;6134392;23;20469;-73
2023/09/16 12:27:13;;;;;;;1.92;1.23;;;;;;;;;;6134569;23;20006;-73
2023/09/16 12:29:39;;;;;;;1.52;1.42;;;;;;;;;;6134159;23;20006;-73
2023/09/16 12:32:17;;;;;;;2.55;1.20;;;28.80;58.60;;;;;;6134263;23;20452;-73
2023/09/16 12:34:43;;;;;;;2.22;1.50;;;;;;;;;;6134355;23;20397;-73
2023/09/16 12:37:09;;;;;;;1.40;1.30;;;;;;;;;;6134247;23;20116;-82
2023/09/16 12:39:35;;;;;;;1.60;1.50;;;;;;;;;;6108762;23;20309;-81
2023/09/16 12:42:04;;;;;;;1.38;1.27;;;28.90;64.40;;;;;;6124737;23;20013;-80
2023/09/16 12:44:35;;;;;;;1.60;1.50;;;28.90;64.30;;;;;;6125012;23;20013;-79
2023/09/16 12:47:03;;;;;;;1.48;1.23;;;;;;;;;;6125019;23;20002;-77
2023/09/16 12:49:30;;;;;;;1.60;1.50;;;;;;;;;;6124943;23;20163;-77
2023/09/16 12:51:57;;;;;;;1.65;1.55;;;;;;;;;;6124970;23;20005;-77
2023/09/16 12:54:23;;;;;;;2.17;1.33;;;;;;;;;;6125067;23;20002;-77
2023/09/16 12:56:50;;;;;;;1.30;1.20;;;;;;;;;;6124899;23;20017;-78
2023/09/16 12:59:18;;;;;;;1.60;1.30;;;28.90;59.20;;;;;;6124596;23;20002;-78
2023/09/16 13:01:45;;;;;;;1.58;1.20;;;;;;;;;;6124519;23;20002;-78
2023/09/16 13:04:12;;;;;;;2.08;1.40;;;;;;;;;;6124889;23;20055;-77
2023/09/16 13:06:39;;;;;;;1.30;1.20;;;;;;;;;;6124444;23;20016;-80
2023/09/16 13:09:06;;;;;;;1.30;1.20;;;29.00;64.60;;;;;;6124892;23;20021;-78
2023/09/16 13:11:33;;;;;;;1.48;1.17;;;;;;;;;;6124999;23;20020;-84
2023/09/16 13:13:59;;;;;;;1.38;1.27;;;;;;;;;;6125419;23;20022;-75
2023/09/16 13:16:27;;;;;;;1.92;1.10;;;29.00;64.80;;;;;;6134158;23;20446;-74
2023/09/16 13:18:53;;;;;;;1.30;1.17;;;;;;;;;;6134216;23;20474;-74
2023/09/16 13:21:35;;;;;;;1.52;1.17;;;28.90;65.10;;;;;;6134207;23;20326;-74
2023/09/16 13:24:01;;;;;;;3.25;1.30;;;29.00;62.90;;;;;;6124415;23;20083;-85
2023/09/16 13:26:27;;;;;;;1.38;1.20;;;;;;;;;;6134752;23;20074;-83
2023/09/16 13:28:55;;;;;;;2.83;1.35;;;28.60;65.40;;;;;;6124661;23;20002;-81
2023/09/16 13:31:25;;;;;;;1.63;1.52;;;28.90;64.80;;;;;;6124700;23;20009;-80
2023/09/16 13:33:59;;;;;;;;;;;29.00;65.30;;;;;;6124876;23;19998;-81
2023/09/16 13:36:29;;;;;;;3.22;1.33;;;28.80;64.70;;;;;;6134704;23;19936;-79
2023/09/16 13:38:55;;;;;;;1.25;1.10;;;;;;;;;;6124337;23;20065;-79
2023/09/16 13:41:26;;;;;;;1.73;1.40;;;28.90;65.40;;;;;;6125127;23;20311;-73
2023/09/16 13:43:52;;;;;;;1.48;1.33;;;28.90;62.50;;;;;;6124505;23;20295;-74
2023/09/16 13:46:19;;;;;;;1.85;1.40;;;;;;;;;;6124263;23;20004;-73
2023/09/16 13:48:47;;;;;;;1.70;1.40;;;;;;;;;;6124269;23;20068;-74
2023/09/16 13:51:17;;;;;;;1.27;1.17;;;29.10;59.70;;;;;;6124002;23;19998;-73
2023/09/16 13:53:43;;;;;;;;;;;28.30;66.10;;;;;;6124741;23;20449;-73
2023/09/16 13:56:10;;;;;;;1.20;1.10;;;29.10;64.70;;;;;;6124697;23;19915;-73
2023/09/16 13:58:38;;;;;;;1.58;1.38;;;;;;;;;;6124501;23;20402;-73
2023/09/16 14:01:05;;;;;;;1.23;1.10;;;29.30;64.90;;;;;;6124314;23;20002;-73
2023/09/16 14:03:32;;;;;;;1.15;1.00;;;;;;;;;;6123859;23;20010;-73
2023/09/16 14:05:58;;;;;;;1.00;0.98;;;;;;;;;;6123942;23;20001;-73
2023/09/16 14:08:25;;;;;;;1.40;1.23;;;;;;;;;;6124337;23;20398;-73